N475SK EGHQ-ZZZZ
Flight info
| Callsign | N475SK |
|---|---|
| Flight time | N/A |
| Altitude | |
| Route | EGHQ/30 VFR EASTBOUND |
| Aircraft | C172 |
Departure
| Time | 2026-05-09 19:28 |
|---|---|
| Airport | Cornwall Airport Newquay (EGHQ) |
Arrival
| Time | N/A |
|---|---|
| Airport | ZZZZ |
| Time | Latitude | Longitude | Altitude | Speed | Heading |
|---|---|---|---|---|---|
| 2026-05-09 19:21 | 50.44293 | -4.99572 | 344 ft | 9 kts | 117° |
| 2026-05-09 19:21 | 50.44251 | -4.99486 | 347 ft | 8 kts | 168° |
| 2026-05-09 19:22 | 50.44207 | -4.99489 | 348 ft | 5 kts | 183° |
| 2026-05-09 19:22 | 50.44172 | -4.99492 | 348 ft | 3 kts | 184° |
| 2026-05-09 19:22 | 50.44163 | -4.99493 | 348 ft | 0 kts | 182° |
| 2026-05-09 19:24 | 50.44100 | -4.99499 | 348 ft | 9 kts | 186° |
| 2026-05-09 19:24 | 50.44059 | -4.99508 | 348 ft | 0 kts | 233° |
| 2026-05-09 19:25 | 50.44059 | -4.99511 | 348 ft | 1 kts | 298° |
| 2026-05-09 19:25 | 50.44067 | -4.99517 | 348 ft | 0 kts | 303° |
| 2026-05-09 19:27 | 50.44122 | -4.99659 | 345 ft | 40 kts | 301° |
| 2026-05-09 19:27 | 50.44327 | -5.00234 | 372 ft | 70 kts | 302° |
| 2026-05-09 19:27 | 50.44539 | -5.00988 | 500 ft | 78 kts | 294° |
| 2026-05-09 19:27 | 50.44778 | -5.01729 | 651 ft | 77 kts | 308° |
| 2026-05-09 19:28 | 50.45179 | -5.02202 | 797 ft | 73 kts | 351° |
| 2026-05-09 19:28 | 50.45681 | -5.02362 | 935 ft | 75 kts | 9° |
| 2026-05-09 19:28 | 50.46131 | -5.02108 | 1132 ft | 70 kts | 45° |
| 2026-05-09 19:28 | 50.46209 | -5.01340 | 1290 ft | 75 kts | 82° |
| 2026-05-09 19:29 | 50.46163 | -5.00556 | 1473 ft | 72 kts | 82° |
| 2026-05-09 19:29 | 50.46164 | -4.99807 | 1634 ft | 72 kts | 78° |
| 2026-05-09 19:29 | 50.46207 | -4.98997 | 1749 ft | 77 kts | 83° |
| 2026-05-09 19:29 | 50.46136 | -4.98193 | 1955 ft | 69 kts | 86° |
| 2026-05-09 19:30 | 50.46063 | -4.97455 | 2121 ft | 68 kts | 87° |
| 2026-05-09 19:30 | 50.45977 | -4.96756 | 2301 ft | 63 kts | 87° |
| 2026-05-09 19:30 | 50.45913 | -4.96095 | 2455 ft | 62 kts | 83° |
| 2026-05-09 19:30 | 50.45839 | -4.95371 | 2546 ft | 71 kts | 88° |
| 2026-05-09 19:31 | 50.45779 | -4.94614 | 2679 ft | 70 kts | 82° |
| 2026-05-09 19:31 | 50.45785 | -4.93884 | 2845 ft | 66 kts | 77° |
| 2026-05-09 19:31 | 50.45844 | -4.93153 | 2935 ft | 72 kts | 70° |
| 2026-05-09 19:31 | 50.45985 | -4.92350 | 3031 ft | 74 kts | 66° |
| 2026-05-09 19:32 | 50.46167 | -4.91573 | 3115 ft | 77 kts | 63° |
| 2026-05-09 19:32 | 50.46395 | -4.90878 | 3285 ft | 72 kts | 64° |
| 2026-05-09 19:32 | 50.46485 | -4.90116 | 3441 ft | 71 kts | 77° |
| 2026-05-09 19:32 | 50.46530 | -4.89340 | 3566 ft | 72 kts | 79° |
| 2026-05-09 19:33 | 50.46473 | -4.88543 | 3698 ft | 73 kts | 86° |
| 2026-05-09 19:33 | 50.46529 | -4.87732 | 3715 ft | 77 kts | 72° |
| 2026-05-09 19:33 | 50.46671 | -4.86914 | 3810 ft | 78 kts | 65° |
| 2026-05-09 19:33 | 50.46878 | -4.86094 | 3852 ft | 84 kts | 63° |
| 2026-05-09 19:34 | 50.47116 | -4.85260 | 3918 ft | 84 kts | 63° |
| 2026-05-09 19:34 | 50.47349 | -4.84442 | 4043 ft | 80 kts | 61° |
| 2026-05-09 19:34 | 50.47483 | -4.83598 | 4136 ft | 82 kts | 83° |
| 2026-05-09 19:34 | 50.47433 | -4.82705 | 4236 ft | 83 kts | 88° |
| 2026-05-09 19:35 | 50.47358 | -4.81807 | 4338 ft | 82 kts | 89° |
| 2026-05-09 19:35 | 50.47280 | -4.80923 | 4437 ft | 82 kts | 89° |
| 2026-05-09 19:35 | 50.47200 | -4.80025 | 4534 ft | 83 kts | 89° |
| 2026-05-09 19:35 | 50.47121 | -4.79127 | 4628 ft | 83 kts | 89° |
| 2026-05-09 19:36 | 50.47042 | -4.78223 | 4724 ft | 83 kts | 89° |
| 2026-05-09 19:36 | 50.46962 | -4.77325 | 4819 ft | 83 kts | 89° |
| 2026-05-09 19:36 | 50.46885 | -4.76434 | 4911 ft | 83 kts | 89° |
| 2026-05-09 19:36 | 50.46807 | -4.75526 | 5006 ft | 83 kts | 89° |
| 2026-05-09 19:37 | 50.46729 | -4.74620 | 5065 ft | 87 kts | 89° |
| 2026-05-09 19:37 | 50.46652 | -4.73661 | 5040 ft | 86 kts | 90° |
| 2026-05-09 19:37 | 50.46577 | -4.72757 | 4997 ft | 83 kts | 90° |
| 2026-05-09 19:37 | 50.46501 | -4.71877 | 4974 ft | 78 kts | 90° |
| 2026-05-09 19:38 | 50.46429 | -4.71052 | 4973 ft | 74 kts | 90° |
| 2026-05-09 19:38 | 50.46357 | -4.70276 | 4973 ft | 71 kts | 89° |
| 2026-05-09 19:38 | 50.46287 | -4.69527 | 4971 ft | 68 kts | 89° |
| 2026-05-09 19:38 | 50.46215 | -4.68807 | 4972 ft | 65 kts | 89° |
| 2026-05-09 19:39 | 50.46143 | -4.68107 | 4975 ft | 63 kts | 89° |
| 2026-05-09 19:39 | 50.46069 | -4.67436 | 4976 ft | 62 kts | 89° |
| 2026-05-09 19:39 | 50.45996 | -4.66776 | 4974 ft | 61 kts | 89° |
| 2026-05-09 19:39 | 50.45923 | -4.66127 | 4975 ft | 60 kts | 89° |
| 2026-05-09 19:40 | 50.45849 | -4.65486 | 4975 ft | 59 kts | 89° |
| 2026-05-09 19:40 | 50.45775 | -4.64842 | 4969 ft | 59 kts | 89° |
| 2026-05-09 19:40 | 50.45703 | -4.64221 | 4974 ft | 57 kts | 89° |
| 2026-05-09 19:40 | 50.45630 | -4.63602 | 4926 ft | 64 kts | 89° |
| 2026-05-09 19:41 | 50.45575 | -4.62837 | 4686 ft | 76 kts | 80° |
| 2026-05-09 19:41 | 50.45768 | -4.62078 | 4451 ft | 80 kts | 46° |
| 2026-05-09 19:41 | 50.46201 | -4.61462 | 4083 ft | 97 kts | 46° |
| 2026-05-09 19:41 | 50.46651 | -4.60785 | 3992 ft | 77 kts | 44° |
| 2026-05-09 19:42 | 50.46980 | -4.60192 | 3756 ft | 85 kts | 54° |
| 2026-05-09 19:42 | 50.47326 | -4.59444 | 3523 ft | 83 kts | 53° |
| 2026-05-09 19:42 | 50.47720 | -4.58873 | 3385 ft | 77 kts | 39° |
| 2026-05-09 19:42 | 50.48183 | -4.58423 | 3165 ft | 80 kts | 32° |
| 2026-05-09 19:43 | 50.48705 | -4.58097 | 2942 ft | 85 kts | 16° |
| 2026-05-09 19:43 | 50.49321 | -4.58220 | 2731 ft | 89 kts | 0° |
| 2026-05-09 19:43 | 50.49892 | -4.58449 | 2564 ft | 87 kts | 359° |
| 2026-05-09 19:43 | 50.50489 | -4.58619 | 2318 ft | 85 kts | 4° |
| 2026-05-09 19:44 | 50.51036 | -4.58877 | 2192 ft | 84 kts | 341° |
| 2026-05-09 19:44 | 50.51532 | -4.59576 | 2145 ft | 103 kts | 325° |
| 2026-05-09 19:44 | 50.51980 | -4.60480 | 2202 ft | 109 kts | 312° |
| 2026-05-09 19:44 | 50.52388 | -4.61403 | 2354 ft | 103 kts | 307° |
| 2026-05-09 19:45 | 50.52473 | -4.62593 | 2383 ft | 119 kts | 269° |
| 2026-05-09 19:45 | 50.52360 | -4.63892 | 2449 ft | 121 kts | 265° |
| 2026-05-09 19:45 | 50.51981 | -4.65039 | 2526 ft | 122 kts | 217° |
| 2026-05-09 19:45 | 50.51311 | -4.65939 | 2480 ft | 131 kts | 212° |
| 2026-05-09 19:46 | 50.50557 | -4.66696 | 2510 ft | 127 kts | 205° |
| 2026-05-09 19:46 | 50.49762 | -4.67315 | 2507 ft | 124 kts | 190° |
| 2026-05-09 19:46 | 50.48965 | -4.67696 | 2541 ft | 125 kts | 195° |
| 2026-05-09 19:46 | 50.48210 | -4.68253 | 2593 ft | 124 kts | 203° |
| 2026-05-09 19:47 | 50.47593 | -4.69253 | 2602 ft | 126 kts | 248° |
| 2026-05-09 19:47 | 50.47476 | -4.70640 | 2521 ft | 126 kts | 283° |
| 2026-05-09 19:47 | 50.47830 | -4.71766 | 2402 ft | 115 kts | 332° |
| 2026-05-09 19:47 | 50.48486 | -4.72410 | 2402 ft | 107 kts | 335° |
| 2026-05-09 19:48 | 50.49106 | -4.73121 | 2355 ft | 107 kts | 333° |
| 2026-05-09 19:48 | 50.49668 | -4.73861 | 2310 ft | 110 kts | 328° |
| 2026-05-09 19:48 | 50.50111 | -4.74890 | 2208 ft | 128 kts | 291° |
| 2026-05-09 19:48 | 50.50126 | -4.76373 | 2013 ft | 133 kts | 284° |
| 2026-05-09 19:49 | 50.50429 | -4.77689 | 1903 ft | 121 kts | 304° |
| 2026-05-09 19:49 | 50.50747 | -4.78795 | 2031 ft | 103 kts | 296° |
| 2026-05-09 19:49 | 50.50755 | -4.79969 | 1971 ft | 115 kts | 258° |
| 2026-05-09 19:49 | 50.50504 | -4.81219 | 1866 ft | 122 kts | 251° |
| 2026-05-09 19:50 | 50.50139 | -4.82420 | 1837 ft | 121 kts | 242° |
| 2026-05-09 19:50 | 50.49733 | -4.83560 | 1827 ft | 118 kts | 236° |
| 2026-05-09 19:50 | 50.49201 | -4.84553 | 1740 ft | 123 kts | 220° |
| 2026-05-09 19:50 | 50.48739 | -4.85621 | 1755 ft | 119 kts | 235° |
| 2026-05-09 19:51 | 50.48166 | -4.86570 | 1732 ft | 119 kts | 216° |
| 2026-05-09 19:51 | 50.47535 | -4.87385 | 1737 ft | 115 kts | 212° |
| 2026-05-09 19:51 | 50.46870 | -4.88026 | 1731 ft | 113 kts | 207° |
| 2026-05-09 19:51 | 50.46224 | -4.88702 | 1737 ft | 105 kts | 189° |
| 2026-05-09 19:52 | 50.45593 | -4.89189 | 1781 ft | 101 kts | 213° |
| 2026-05-09 19:52 | 50.44987 | -4.89425 | 1850 ft | 76 kts | 146° |
| 2026-05-09 19:52 | 50.44611 | -4.88960 | 1831 ft | 63 kts | 91° |
| 2026-05-09 19:52 | 50.44881 | -4.88574 | 1808 ft | 72 kts | 358° |
| 2026-05-09 19:53 | 50.45155 | -4.89354 | 1814 ft | 99 kts | 260° |
| 2026-05-09 19:53 | 50.45065 | -4.90500 | 1723 ft | 105 kts | 281° |
| 2026-05-09 19:53 | 50.45162 | -4.91626 | 1678 ft | 106 kts | 286° |
| 2026-05-09 19:53 | 50.45179 | -4.92775 | 1667 ft | 105 kts | 234° |
| 2026-05-09 19:54 | 50.44598 | -4.93550 | 1517 ft | 107 kts | 210° |
| 2026-05-09 19:54 | 50.44017 | -4.94116 | 1497 ft | 88 kts | 215° |
| 2026-05-09 19:54 | 50.43518 | -4.94635 | 1392 ft | 90 kts | 202° |
| 2026-05-09 19:54 | 50.43126 | -4.95368 | 1301 ft | 89 kts | 244° |
| 2026-05-09 19:55 | 50.43023 | -4.96351 | 1100 ft | 92 kts | 284° |
| 2026-05-09 19:55 | 50.43194 | -4.97250 | 819 ft | 83 kts | 303° |
| 2026-05-09 19:55 | 50.43486 | -4.97987 | 546 ft | 78 kts | 308° |